createdAt,value
2023-03-21T00:00:04.435Z,84.86
2023-03-21T00:01:04.391Z,85.47
2023-03-21T00:02:04.466Z,84.66
2023-03-21T00:03:04.371Z,84.55
2023-03-21T00:04:04.439Z,84.66
2023-03-21T00:05:15.129Z,84.34
2023-03-21T00:06:04.368Z,84.86
2023-03-21T00:07:04.333Z,84.66
2023-03-21T00:08:04.353Z,84.25
2023-03-21T00:09:04.308Z,84.25
2023-03-21T00:10:14.351Z,85.27
2023-03-21T00:11:04.319Z,86.09
2023-03-21T00:12:04.290Z,84.66
2023-03-21T00:13:04.256Z,85.99
2023-03-21T00:14:04.268Z,85.27
2023-03-21T00:15:04.239Z,84.55
2023-03-21T00:16:08.916Z,85.47
2023-03-21T00:17:04.273Z,84.96
2023-03-21T00:18:04.235Z,85.89
2023-03-21T00:19:04.192Z,85.17
2023-03-21T00:20:04.205Z,84.96
2023-03-21T00:21:35.649Z,84.76
2023-03-21T00:22:08.153Z,85.27
2023-03-21T00:23:04.192Z,85.78
2023-03-21T00:24:04.171Z,85.78
2023-03-21T00:25:04.143Z,84.76
2023-03-21T00:26:04.155Z,85.47
2023-03-21T00:27:26.950Z,85.27
2023-03-21T00:28:08.466Z,84.76
2023-03-21T00:29:04.104Z,85.47
2023-03-21T00:30:04.106Z,84.55
2023-03-21T00:31:04.090Z,84.86
2023-03-21T00:32:04.080Z,84.14
2023-03-21T00:33:15.840Z,84.76
2023-03-21T00:34:04.077Z,84.55
2023-03-21T00:35:26.119Z,84.86
2023-03-21T00:36:05.765Z,84.86
2023-03-21T00:37:03.998Z,84.14
2023-03-21T00:38:04.012Z,84.55
2023-03-21T00:39:03.979Z,84.45
2023-03-21T00:40:04.269Z,85.47
2023-03-21T00:41:11.034Z,84.04
2023-03-21T00:42:03.972Z,83.53
2023-03-21T00:43:03.953Z,84.14
2023-03-21T00:44:03.968Z,84.25
2023-03-21T00:45:03.958Z,83.32
2023-03-21T00:46:03.926Z,83.18
2023-03-21T00:47:07.656Z,83.49
2023-03-21T00:48:04.072Z,84.00
2023-03-21T00:49:03.874Z,84.14
2023-03-21T00:50:03.895Z,83.53
2023-03-21T00:51:03.860Z,83.53
2023-03-21T00:52:30.516Z,84.45
2023-03-21T00:53:03.871Z,83.94
2023-03-21T00:54:03.843Z,83.73
2023-03-21T00:55:03.814Z,84.86
2023-03-21T00:56:03.833Z,84.14
2023-03-21T00:57:03.786Z,83.63
2023-03-21T00:58:03.803Z,83.63
2023-03-21T00:59:03.787Z,83.53
2023-03-21T01:00:03.785Z,83.94
2023-03-21T01:01:03.780Z,84.55
2023-03-21T01:02:03.819Z,83.53
2023-03-21T01:03:14.210Z,83.53
2023-03-21T01:04:03.754Z,85.06
2023-03-21T01:05:03.737Z,83.73
2023-03-21T01:06:03.745Z,83.42
2023-03-21T01:07:03.691Z,83.42
2023-03-21T01:08:08.145Z,83.53
2023-03-21T01:09:03.675Z,84.86
2023-03-21T01:10:03.674Z,83.63
2023-03-21T01:11:03.658Z,84.25
2023-03-21T01:12:03.653Z,84.04
2023-03-21T01:13:03.628Z,84.55
2023-03-21T01:14:20.770Z,83.94
2023-03-21T01:15:03.600Z,85.06
2023-03-21T01:16:03.625Z,84.55
2023-03-21T01:17:03.598Z,84.96
2023-03-21T01:18:03.597Z,84.66
2023-03-21T01:19:07.044Z,84.96
2023-03-21T01:20:03.571Z,84.86
2023-03-21T01:21:03.526Z,84.86
2023-03-21T01:22:03.540Z,84.04
2023-03-21T01:23:03.537Z,84.25
2023-03-21T01:24:03.524Z,83.94
2023-03-21T01:25:21.041Z,84.55
2023-03-21T01:26:03.504Z,84.86
2023-03-21T01:27:03.503Z,84.76
2023-03-21T01:28:03.486Z,84.55
2023-03-21T01:29:03.483Z,84.76
2023-03-21T01:30:06.243Z,84.55
2023-03-21T01:31:03.431Z,84.45
2023-03-21T01:32:03.435Z,84.45
2023-03-21T01:33:03.401Z,84.66
2023-03-21T01:34:03.427Z,84.45
2023-03-21T01:35:03.420Z,84.14
2023-03-21T01:36:12.820Z,84.25
2023-03-21T01:37:03.410Z,85.06
2023-03-21T01:38:03.368Z,84.45
2023-03-21T01:39:03.336Z,84.86
2023-03-21T01:40:03.362Z,84.86
2023-03-21T01:41:08.609Z,84.66
2023-03-21T01:42:03.337Z,84.66
2023-03-21T01:43:03.321Z,86.81
2023-03-21T01:44:03.326Z,85.68
2023-03-21T01:45:03.289Z,85.17
2023-03-21T01:46:03.317Z,85.78
2023-03-21T01:47:11.023Z,85.72
2023-03-21T01:48:03.302Z,85.21
2023-03-21T01:49:03.250Z,85.31
2023-03-21T01:50:03.258Z,84.90
2023-03-21T01:51:03.213Z,84.90
2023-03-21T01:52:11.504Z,85.00
2023-03-21T01:53:03.232Z,85.00
2023-03-21T01:54:03.228Z,84.55
2023-03-21T01:55:03.167Z,84.86
2023-03-21T01:56:03.179Z,85.06
2023-03-21T01:57:03.151Z,84.25
2023-03-21T01:58:06.270Z,84.76
2023-03-21T01:59:03.147Z,84.25
2023-03-21T02:00:03.134Z,84.66
2023-03-21T02:01:03.237Z,84.45
2023-03-21T02:02:03.112Z,84.34
2023-03-21T02:03:13.624Z,84.45
2023-03-21T02:04:03.121Z,84.25
2023-03-21T02:05:03.072Z,84.55
2023-03-21T02:06:03.069Z,84.04
2023-03-21T02:07:03.045Z,84.34
2023-03-21T02:08:03.047Z,84.66
2023-03-21T02:09:03.019Z,84.86
2023-03-21T02:10:03.039Z,84.66
2023-03-21T02:11:03.028Z,85.27
2023-03-21T02:12:03.006Z,85.17
2023-03-21T02:13:02.976Z,84.34
2023-03-21T02:14:06.681Z,84.55
2023-03-21T02:15:02.963Z,83.83
2023-03-21T02:16:02.961Z,84.76
2023-03-21T02:17:02.947Z,84.04
2023-03-21T02:18:02.944Z,83.83
2023-03-21T02:19:02.913Z,84.34
2023-03-21T02:20:02.926Z,83.73
2023-03-21T02:21:02.887Z,84.96
2023-03-21T02:22:02.922Z,85.17
2023-03-21T02:23:02.883Z,84.55
2023-03-21T02:24:02.892Z,84.34
2023-03-21T02:25:08.269Z,83.83
2023-03-21T02:26:02.900Z,84.04
2023-03-21T02:27:04.325Z,84.66
2023-03-21T02:28:02.845Z,84.66
2023-03-21T02:29:02.839Z,85.47
2023-03-21T02:30:02.820Z,83.83
2023-03-21T02:31:02.820Z,83.94
2023-03-21T02:32:15.151Z,83.83
2023-03-21T02:33:02.774Z,83.73
2023-03-21T02:34:02.798Z,83.53
2023-03-21T02:35:02.772Z,83.53
2023-03-21T02:36:12.003Z,84.55
2023-03-21T02:37:02.727Z,83.53
2023-03-21T02:38:02.735Z,83.73
2023-03-21T02:39:02.731Z,83.73
2023-03-21T02:40:02.709Z,83.63
2023-03-21T02:41:05.375Z,83.53
2023-03-21T02:42:02.711Z,83.53
2023-03-21T02:43:03.043Z,84.14
2023-03-21T02:44:02.663Z,84.34
2023-03-21T02:45:02.641Z,83.63
2023-03-21T02:46:02.806Z,84.14
2023-03-21T02:47:06.376Z,84.45
2023-03-21T02:48:03.017Z,85.17
2023-03-21T02:49:02.619Z,84.04
2023-03-21T02:50:02.613Z,84.04
2023-03-21T02:51:02.591Z,83.83
2023-03-21T02:52:13.611Z,84.66
2023-03-21T02:53:02.600Z,84.34
2023-03-21T02:54:27.869Z,84.76
2023-03-21T02:55:02.557Z,84.86
2023-03-21T02:56:02.518Z,85.27
2023-03-21T02:57:02.533Z,84.25
2023-03-21T02:58:12.420Z,84.55
2023-03-21T02:59:02.564Z,84.96
2023-03-21T03:00:14.028Z,84.34
2023-03-21T03:01:02.496Z,84.66
2023-03-21T03:02:02.471Z,84.66
2023-03-21T03:03:10.093Z,83.83
2023-03-21T03:04:02.595Z,84.76
2023-03-21T03:05:06.428Z,84.76
2023-03-21T03:06:02.415Z,84.14
2023-03-21T03:07:02.427Z,84.76
2023-03-21T03:08:02.403Z,84.96
2023-03-21T03:09:03.237Z,84.25
2023-03-21T03:10:02.382Z,84.55
2023-03-21T03:11:02.403Z,84.96
2023-03-21T03:12:02.349Z,84.45
2023-03-21T03:13:02.359Z,84.45
2023-03-21T03:14:15.630Z,84.66
2023-03-21T03:15:04.179Z,83.94
2023-03-21T03:16:02.504Z,84.04
2023-03-21T03:17:02.338Z,84.45
2023-03-21T03:18:02.292Z,84.66
2023-03-21T03:19:02.298Z,85.58
2023-03-21T03:20:15.254Z,86.09
2023-03-21T03:21:02.280Z,84.76
2023-03-21T03:22:02.243Z,84.55
2023-03-21T03:23:02.275Z,84.25
2023-03-21T03:24:02.221Z,83.94
2023-03-21T03:25:12.571Z,83.94
2023-03-21T03:26:02.209Z,84.25
2023-03-21T03:27:02.214Z,84.04
2023-03-21T03:28:02.177Z,84.00
2023-03-21T03:29:02.236Z,85.17
2023-03-21T03:30:02.163Z,85.17
2023-03-21T03:31:09.367Z,84.25
2023-03-21T03:32:02.274Z,84.34
2023-03-21T03:33:02.147Z,85.47
2023-03-21T03:34:02.133Z,84.14
2023-03-21T03:35:02.147Z,85.47
2023-03-21T03:36:06.486Z,84.45
2023-03-21T03:37:02.136Z,84.66
2023-03-21T03:38:02.076Z,84.04
2023-03-21T03:39:02.085Z,84.25
2023-03-21T03:40:02.057Z,84.55
2023-03-21T03:41:02.087Z,84.55
2023-03-21T03:42:12.508Z,84.34
2023-03-21T03:43:02.046Z,84.76
2023-03-21T03:44:02.005Z,85.58
2023-03-21T03:45:02.020Z,84.86
2023-03-21T03:46:02.003Z,85.17
2023-03-21T03:47:02.016Z,84.86
2023-03-21T03:48:02.013Z,85.47
2023-03-21T03:49:01.976Z,85.17
2023-03-21T03:50:01.941Z,86.40
2023-03-21T03:51:01.959Z,85.06
2023-03-21T03:52:01.922Z,85.06
2023-03-21T03:53:07.118Z,85.17
2023-03-21T03:54:01.924Z,84.96
2023-03-21T03:55:01.920Z,84.86
2023-03-21T03:56:01.889Z,85.78
2023-03-21T03:57:01.898Z,84.76
2023-03-21T03:58:03.189Z,85.38
2023-03-21T03:59:01.900Z,85.38
2023-03-21T04:00:01.836Z,85.06
2023-03-21T04:01:01.874Z,85.17
2023-03-21T04:02:01.973Z,84.86
2023-03-21T04:03:01.988Z,85.06
2023-03-21T04:04:12.604Z,84.76
2023-03-21T04:05:01.840Z,83.94
2023-03-21T04:06:01.780Z,84.14
2023-03-21T04:07:01.793Z,84.34
2023-03-21T04:08:01.754Z,84.04
2023-03-21T04:09:07.874Z,84.14
2023-03-21T04:10:01.739Z,84.45
2023-03-21T04:11:01.763Z,84.45
2023-03-21T04:12:01.718Z,84.14
2023-03-21T04:13:01.732Z,84.66
2023-03-21T04:14:01.718Z,84.14
2023-03-21T04:15:10.124Z,84.25
2023-03-21T04:16:01.742Z,83.83
2023-03-21T04:17:01.735Z,84.45
2023-03-21T04:18:01.646Z,84.76
2023-03-21T04:19:01.661Z,83.83
2023-03-21T04:20:11.335Z,84.34
2023-03-21T04:21:01.654Z,84.66
2023-03-21T04:22:01.627Z,84.86
2023-03-21T04:23:01.656Z,83.90
2023-03-21T04:24:01.595Z,83.73
2023-03-21T04:25:01.612Z,84.04
2023-03-21T04:26:01.563Z,84.04
2023-03-21T04:27:01.605Z,83.94
2023-03-21T04:28:01.556Z,83.53
2023-03-21T04:29:01.570Z,83.90
2023-03-21T04:30:01.536Z,84.14
2023-03-21T04:31:08.783Z,84.76
2023-03-21T04:32:01.585Z,84.86
2023-03-21T04:33:01.517Z,84.25
2023-03-21T04:34:01.488Z,84.25
2023-03-21T04:35:01.512Z,84.25
2023-03-21T04:36:01.480Z,84.34
2023-03-21T04:37:01.471Z,84.14
2023-03-21T04:38:01.436Z,84.25
2023-03-21T04:39:01.476Z,84.34
2023-03-21T04:40:01.426Z,84.04
2023-03-21T04:41:01.456Z,84.45
2023-03-21T04:42:01.397Z,84.76
2023-03-21T04:43:01.429Z,84.66
2023-03-21T04:44:01.372Z,84.34
2023-03-21T04:45:01.394Z,84.90
2023-03-21T04:46:01.404Z,85.11
2023-03-21T04:47:01.384Z,85.31
2023-03-21T04:48:01.350Z,85.00
2023-03-21T04:49:01.351Z,85.62
2023-03-21T04:50:01.320Z,85.52
2023-03-21T04:51:01.326Z,85.62
2023-03-21T04:52:01.293Z,85.21
2023-03-21T04:53:01.343Z,85.11
2023-03-21T04:54:01.262Z,85.31
2023-03-21T04:55:01.293Z,85.31
2023-03-21T04:56:01.270Z,85.00
2023-03-21T04:57:01.241Z,85.41
2023-03-21T04:58:01.250Z,85.76
2023-03-21T04:59:01.234Z,85.00
2023-03-21T05:00:01.226Z,84.90
2023-03-21T05:01:01.240Z,85.21
2023-03-21T05:02:01.196Z,85.52
2023-03-21T05:03:01.165Z,85.00
2023-03-21T05:04:01.219Z,85.52
2023-03-21T05:05:01.171Z,84.90
2023-03-21T05:06:01.156Z,85.00
2023-03-21T05:07:01.124Z,85.55
2023-03-21T05:08:01.144Z,85.86
2023-03-21T05:09:01.101Z,86.07
2023-03-21T05:10:02.595Z,86.17
2023-03-21T05:11:01.110Z,86.27
2023-03-21T05:12:01.096Z,86.32
2023-03-21T05:13:01.074Z,86.52
2023-03-21T05:14:01.069Z,86.52
2023-03-21T05:15:01.047Z,86.52
2023-03-21T05:16:01.054Z,86.93
2023-03-21T05:17:01.127Z,88.17
2023-03-21T05:18:01.066Z,87.55
2023-03-21T05:19:01.004Z,87.38
2023-03-21T05:20:01.014Z,88.20
2023-03-21T05:21:00.973Z,87.79
2023-03-21T05:22:00.986Z,88.31
2023-03-21T05:23:01.047Z,89.03
2023-03-21T05:24:00.999Z,88.72
2023-03-21T05:25:00.928Z,89.23
2023-03-21T05:26:00.970Z,89.85
2023-03-21T05:27:01.669Z,90.36
2023-03-21T05:28:00.940Z,89.69
2023-03-21T05:29:00.903Z,90.78
2023-03-21T05:30:00.923Z,91.53
2023-03-21T05:31:00.913Z,91.23
2023-03-21T05:32:00.882Z,90.92
2023-03-21T05:33:00.866Z,91.02
2023-03-21T05:34:00.862Z,92.16
2023-03-21T05:35:00.853Z,91.23
2023-03-21T05:36:00.869Z,91.13
2023-03-21T05:37:00.803Z,91.33
2023-03-21T05:38:00.824Z,90.20
2023-03-21T05:39:00.780Z,90.51
2023-03-21T05:40:00.806Z,89.85
2023-03-21T05:41:00.785Z,90.16
2023-03-21T05:42:00.778Z,91.19
2023-03-21T05:43:00.742Z,91.29
2023-03-21T05:44:00.748Z,91.91
2023-03-21T05:45:00.728Z,90.26
2023-03-21T05:46:00.782Z,89.95
2023-03-21T05:47:00.716Z,90.47
2023-03-21T05:48:00.823Z,90.73
2023-03-21T05:49:00.672Z,89.29
2023-03-21T05:50:00.691Z,89.50
2023-03-21T05:51:00.653Z,88.27
2023-03-21T05:52:00.674Z,87.75
2023-03-21T05:53:00.670Z,87.75
2023-03-21T05:54:00.651Z,87.61
2023-03-21T05:55:00.619Z,87.10
2023-03-21T05:56:00.641Z,86.99
2023-03-21T05:57:00.590Z,87.30
2023-03-21T05:58:00.608Z,87.20
2023-03-21T05:59:00.584Z,86.99
2023-03-21T06:00:00.581Z,87.51
2023-03-21T06:01:00.545Z,87.30
2023-03-21T06:02:00.565Z,87.46
2023-03-21T06:03:00.589Z,87.46
2023-03-21T06:04:00.611Z,87.46
2023-03-21T06:05:00.528Z,86.33
2023-03-21T06:06:00.530Z,86.33
2023-03-21T06:07:00.483Z,86.75
2023-03-21T06:08:00.501Z,86.13
2023-03-21T06:09:00.516Z,86.54
2023-03-21T06:10:00.475Z,86.54
2023-03-21T06:11:00.456Z,86.13
2023-03-21T06:12:00.467Z,85.62
2023-03-21T06:13:00.420Z,85.52
2023-03-21T06:14:00.441Z,85.47
2023-03-21T06:15:00.403Z,85.38
2023-03-21T06:16:00.516Z,84.96
2023-03-21T06:17:00.402Z,85.06
2023-03-21T06:18:00.393Z,85.17
2023-03-21T06:19:00.377Z,85.38
2023-03-21T06:20:00.376Z,84.96
2023-03-21T06:21:00.333Z,85.58
2023-03-21T06:22:00.350Z,85.03
2023-03-21T06:23:00.333Z,84.61
2023-03-21T06:24:00.325Z,84.41
2023-03-21T06:25:00.294Z,85.13
2023-03-21T06:26:00.309Z,85.03
2023-03-21T06:27:02.366Z,85.23
2023-03-21T06:28:00.289Z,85.33
2023-03-21T06:29:00.275Z,84.20
2023-03-21T06:30:00.267Z,85.54
2023-03-21T06:31:00.286Z,84.61
2023-03-21T06:32:00.242Z,84.52
2023-03-21T06:33:00.204Z,84.82
2023-03-21T06:34:00.222Z,84.58
2023-03-21T06:35:00.213Z,84.20
2023-03-21T06:36:00.271Z,84.47
2023-03-21T06:37:00.166Z,84.68
2023-03-21T06:38:00.184Z,83.96
2023-03-21T06:39:00.145Z,83.96
2023-03-21T06:40:00.162Z,83.96
2023-03-21T06:41:00.152Z,83.96
2023-03-21T06:42:00.191Z,85.09
2023-03-21T06:43:00.104Z,84.06
2023-03-21T06:44:00.130Z,83.96
2023-03-21T06:45:00.087Z,84.06
2023-03-21T06:46:00.110Z,84.78
2023-03-21T06:47:00.147Z,84.06
2023-03-21T06:48:00.163Z,85.39
2023-03-21T06:49:00.038Z,83.86
2023-03-21T06:50:00.062Z,83.96
2023-03-21T06:51:00.016Z,84.06
2023-03-21T06:52:00.043Z,85.19
2023-03-21T06:53:00.005Z,84.78
2023-03-21T06:54:00.006Z,84.78
2023-03-21T06:54:59.970Z,84.47
2023-03-21T06:55:59.983Z,83.96
2023-03-21T06:56:59.954Z,85.09
2023-03-21T06:57:59.964Z,83.86
2023-03-21T06:58:59.961Z,85.09
2023-03-21T06:59:59.947Z,85.80
2023-03-21T07:01:00.012Z,84.99
2023-03-21T07:01:59.919Z,86.63
2023-03-21T07:02:59.944Z,86.63
2023-03-21T07:03:59.901Z,84.47
2023-03-21T07:04:59.891Z,84.78
2023-03-21T07:05:59.885Z,84.99
2023-03-21T07:06:59.873Z,84.47
2023-03-21T07:07:59.837Z,84.95
2023-03-21T07:08:59.848Z,84.95
2023-03-21T07:09:59.828Z,84.23
2023-03-21T07:10:59.845Z,85.05
2023-03-21T07:11:59.792Z,84.53
2023-03-21T07:12:59.823Z,84.12
2023-03-21T07:13:59.770Z,85.56
2023-03-21T07:14:59.804Z,85.77
2023-03-21T07:15:59.842Z,85.87
2023-03-21T07:16:59.775Z,86.69
2023-03-21T07:17:59.728Z,87.41
2023-03-21T07:18:59.744Z,86.07
2023-03-21T07:19:59.709Z,87.20
2023-03-21T07:20:59.722Z,85.66
2023-03-21T07:21:59.686Z,86.58
2023-03-21T07:22:59.714Z,86.90
2023-03-21T07:23:59.670Z,87.30
2023-03-21T07:25:05.120Z,87.51
2023-03-21T07:25:59.698Z,87.82
2023-03-21T07:26:59.654Z,89.76
2023-03-21T07:27:59.622Z,90.01
2023-03-21T07:28:59.667Z,91.96
2023-03-21T07:29:59.602Z,93.70
2023-03-21T07:30:59.626Z,93.02
2023-03-21T07:31:59.629Z,93.33
2023-03-21T07:32:59.596Z,94.98
2023-03-21T07:33:59.564Z,94.87
2023-03-21T07:35:01.645Z,97.23
2023-03-21T07:35:59.544Z,95.94
2023-03-21T07:36:59.548Z,97.17
2023-03-21T07:37:59.515Z,97.89
2023-03-21T07:38:59.530Z,99.33
2023-03-21T07:39:59.498Z,98.71
2023-03-21T07:40:59.533Z,97.48
2023-03-21T07:41:59.469Z,96.77
2023-03-21T07:42:59.483Z,97.07
2023-03-21T07:43:59.474Z,97.69
2023-03-21T07:44:59.483Z,98.86
2023-03-21T07:45:59.495Z,99.99
2023-03-21T07:46:59.470Z,99.99
2023-03-21T07:47:59.466Z,99.58
2023-03-21T07:48:59.424Z,99.63
2023-03-21T07:49:59.387Z,99.17
2023-03-21T07:50:59.401Z,98.25
2023-03-21T07:51:59.364Z,99.68
2023-03-21T07:52:59.400Z,99.99
2023-03-21T07:53:59.351Z,99.99
2023-03-21T07:54:59.357Z,99.99
2023-03-21T07:55:59.334Z,99.99
2023-03-21T07:56:59.337Z,99.99
2023-03-21T07:57:59.308Z,99.99
2023-03-21T07:58:59.351Z,99.99
2023-03-21T07:59:59.277Z,99.99
2023-03-21T08:00:59.290Z,99.63
2023-03-21T08:01:59.309Z,99.99
2023-03-21T08:02:59.311Z,99.95
2023-03-21T08:03:59.240Z,99.84
2023-03-21T08:04:59.277Z,99.99
2023-03-21T08:05:59.219Z,98.71
2023-03-21T08:06:59.228Z,98.20
2023-03-21T08:07:59.192Z,99.43
2023-03-21T08:08:59.205Z,98.30
2023-03-21T08:09:59.173Z,98.30
2023-03-21T08:10:59.209Z,98.61
2023-03-21T08:11:59.151Z,99.74
2023-03-21T08:12:59.181Z,99.59
2023-03-21T08:13:59.130Z,99.59
2023-03-21T08:15:01.139Z,99.99
2023-03-21T08:15:59.117Z,99.99
2023-03-21T08:16:59.198Z,98.87
2023-03-21T08:17:59.091Z,98.87
2023-03-21T08:18:59.102Z,99.08
2023-03-21T08:19:59.067Z,99.38
2023-03-21T08:20:59.084Z,98.57
2023-03-21T08:21:59.066Z,99.99
2023-03-21T08:22:59.083Z,99.99
2023-03-21T08:23:59.025Z,99.99
2023-03-21T08:24:59.034Z,99.99
2023-03-21T08:25:59.007Z,98.62
2023-03-21T08:26:59.016Z,96.88
2023-03-21T08:27:58.979Z,98.32
2023-03-21T08:28:59.018Z,98.00
2023-03-21T08:29:58.961Z,97.91
2023-03-21T08:30:58.985Z,97.29
2023-03-21T08:31:58.945Z,99.85
2023-03-21T08:33:01.197Z,98.62
2023-03-21T08:33:58.925Z,98.52
2023-03-21T08:34:59.042Z,96.67
2023-03-21T08:35:58.938Z,98.21
2023-03-21T08:36:58.913Z,98.32
2023-03-21T08:37:58.877Z,98.32
2023-03-21T08:38:58.904Z,98.11
2023-03-21T08:39:58.915Z,96.57
2023-03-21T08:41:00.285Z,98.62
2023-03-21T08:41:58.837Z,97.29
2023-03-21T08:42:58.845Z,97.23
2023-03-21T08:43:58.815Z,97.44
2023-03-21T08:44:58.825Z,99.38
2023-03-21T08:45:58.835Z,99.13
2023-03-21T08:46:58.820Z,98.25
2023-03-21T08:47:58.789Z,99.38
2023-03-21T08:48:58.784Z,99.79
2023-03-21T08:49:59.233Z,99.99
2023-03-21T08:50:58.759Z,99.99
2023-03-21T08:51:58.725Z,99.99
2023-03-21T08:52:58.771Z,99.99
2023-03-21T08:53:58.701Z,99.99
2023-03-21T08:54:58.717Z,99.79
2023-03-21T08:55:58.685Z,99.99
2023-03-21T08:56:58.709Z,99.99
2023-03-21T08:57:58.680Z,99.99
2023-03-21T08:58:58.699Z,99.99
2023-03-21T08:59:58.643Z,99.99
2023-03-21T09:00:58.654Z,99.99
2023-03-21T09:01:58.721Z,99.99
2023-03-21T09:02:58.635Z,99.99
2023-03-21T09:03:58.611Z,99.99
2023-03-21T09:04:58.773Z,99.99
2023-03-21T09:05:58.586Z,99.99
2023-03-21T09:06:58.588Z,99.99
2023-03-21T09:07:58.568Z,99.99
2023-03-21T09:08:58.564Z,99.99
2023-03-21T09:10:19.235Z,99.99
2023-03-21T09:10:58.587Z,99.79
2023-03-21T09:11:58.552Z,99.99
2023-03-21T09:12:58.531Z,99.99
2023-03-21T09:13:58.498Z,99.99
2023-03-21T09:14:58.510Z,99.99
2023-03-21T09:15:58.507Z,99.99
2023-03-21T09:16:58.503Z,99.99
2023-03-21T09:17:58.469Z,99.95
2023-03-21T09:18:58.458Z,99.99
2023-03-21T09:19:58.425Z,99.99
2023-03-21T09:20:58.447Z,99.99
2023-03-21T09:21:58.415Z,99.99
2023-03-21T09:22:58.432Z,99.99
2023-03-21T09:23:58.427Z,99.99
2023-03-21T09:24:58.392Z,99.99
2023-03-21T09:25:58.362Z,99.99
2023-03-21T09:26:58.377Z,99.99
2023-03-21T09:27:58.339Z,99.99
2023-03-21T09:28:58.398Z,99.99
2023-03-21T09:29:58.318Z,99.99
2023-03-21T09:30:58.378Z,99.99
2023-03-21T09:31:58.295Z,99.99
2023-03-21T09:32:58.307Z,99.99
2023-03-21T09:33:58.302Z,99.99
2023-03-21T09:34:58.311Z,99.95
2023-03-21T09:35:58.273Z,99.99
2023-03-21T09:36:58.280Z,99.99
2023-03-21T09:37:58.236Z,99.99
2023-03-21T09:38:58.253Z,99.99
2023-03-21T09:39:58.214Z,99.29
2023-03-21T09:40:58.284Z,99.80
2023-03-21T09:41:58.187Z,99.99
2023-03-21T09:42:58.242Z,99.99
2023-03-21T09:43:58.193Z,98.12
2023-03-21T09:44:58.194Z,99.04
2023-03-21T09:45:58.385Z,99.99
2023-03-21T09:46:58.230Z,99.99
2023-03-21T09:47:58.179Z,99.15
2023-03-21T09:48:58.146Z,99.99
2023-03-21T09:50:07.600Z,99.99
2023-03-21T09:50:58.123Z,99.99
2023-03-21T09:51:58.085Z,98.58
2023-03-21T09:52:58.127Z,97.25
2023-03-21T09:53:58.064Z,96.54
2023-03-21T09:54:58.071Z,98.28
2023-03-21T09:55:58.034Z,99.61
2023-03-21T09:56:58.055Z,99.51
2023-03-21T09:57:58.032Z,98.58
2023-03-21T09:58:58.047Z,99.46
2023-03-21T09:59:57.997Z,99.66
2023-03-21T10:00:58.129Z,97.36
2023-03-21T10:01:58.215Z,98.38
2023-03-21T10:02:57.985Z,99.10
2023-03-21T10:03:57.969Z,98.38
2023-03-21T10:04:57.982Z,98.28
2023-03-21T10:05:57.944Z,97.56
2023-03-21T10:06:57.983Z,99.61
2023-03-21T10:07:57.923Z,99.82
2023-03-21T10:08:57.929Z,97.97
2023-03-21T10:09:57.894Z,97.77
2023-03-21T10:10:57.913Z,98.90
2023-03-21T10:11:57.872Z,98.99
2023-03-21T10:12:57.906Z,98.99
2023-03-21T10:13:57.841Z,99.20
2023-03-21T10:14:58.154Z,97.77
2023-03-21T10:15:57.914Z,99.20
2023-03-21T10:16:57.873Z,99.99
2023-03-21T10:17:57.797Z,99.99
2023-03-21T10:18:57.851Z,99.98
2023-03-21T10:19:57.779Z,98.69
2023-03-21T10:20:57.793Z,98.90
2023-03-21T10:22:03.023Z,99.51
2023-03-21T10:22:57.807Z,99.99
2023-03-21T10:23:57.738Z,99.99
2023-03-21T10:24:57.745Z,99.99
2023-03-21T10:25:57.744Z,99.99
2023-03-21T10:26:57.727Z,99.99
2023-03-21T10:27:57.696Z,99.99
2023-03-21T10:28:57.735Z,99.99
2023-03-21T10:29:57.681Z,99.99
2023-03-21T10:30:57.687Z,99.71
2023-03-21T10:31:57.794Z,99.99
2023-03-21T10:32:59.591Z,98.69
2023-03-21T10:33:57.634Z,98.79
2023-03-21T10:34:57.769Z,98.58
2023-03-21T10:35:57.628Z,99.99
2023-03-21T10:36:57.618Z,99.99
2023-03-21T10:37:57.579Z,99.99
2023-03-21T10:38:57.596Z,99.99
2023-03-21T10:39:57.566Z,99.99
2023-03-21T10:40:57.617Z,99.30
2023-03-21T10:41:57.578Z,99.10
2023-03-21T10:42:57.552Z,99.99
2023-03-21T10:43:57.519Z,99.99
2023-03-21T10:44:57.647Z,99.99
2023-03-21T10:45:57.666Z,99.99
2023-03-21T10:46:57.751Z,99.99
2023-03-21T10:47:57.767Z,99.99
2023-03-21T10:48:57.586Z,99.99
2023-03-21T10:50:07.355Z,99.99
2023-03-21T10:50:57.528Z,99.99
2023-03-21T10:51:57.431Z,99.99
2023-03-21T10:52:57.472Z,99.99
2023-03-21T10:53:57.524Z,99.99
2023-03-21T10:54:57.436Z,99.99
2023-03-21T10:55:57.389Z,99.99
2023-03-21T10:56:57.407Z,99.99
2023-03-21T10:57:57.381Z,99.99
2023-03-21T10:58:57.398Z,99.99
2023-03-21T10:59:57.346Z,99.99
2023-03-21T11:00:57.386Z,99.99
2023-03-21T11:01:57.414Z,99.99
2023-03-21T11:02:57.359Z,99.99
2023-03-21T11:03:57.319Z,99.99
2023-03-21T11:04:57.352Z,99.99
2023-03-21T11:05:57.293Z,99.99
2023-03-21T11:06:57.353Z,99.99
2023-03-21T11:07:57.279Z,99.99
2023-03-21T11:08:57.272Z,99.99
2023-03-21T11:09:57.246Z,99.99
2023-03-21T11:10:57.274Z,99.99
2023-03-21T11:11:57.221Z,99.99
2023-03-21T11:12:57.244Z,99.99
2023-03-21T11:13:57.246Z,99.99
2023-03-21T11:14:57.230Z,99.99
2023-03-21T11:15:57.178Z,99.99
2023-03-21T11:16:57.226Z,99.99
2023-03-21T11:17:57.176Z,99.99
2023-03-21T11:18:57.173Z,99.99
2023-03-21T11:19:57.216Z,99.99
2023-03-21T11:20:57.164Z,99.99
2023-03-21T11:21:57.115Z,99.99
2023-03-21T11:22:57.154Z,99.99
2023-03-21T11:23:57.332Z,99.99
2023-03-21T11:24:57.082Z,99.99
2023-03-21T11:25:57.114Z,99.99
2023-03-21T11:26:57.078Z,99.99
2023-03-21T11:27:57.117Z,99.99
2023-03-21T11:28:57.103Z,99.99
2023-03-21T11:29:57.055Z,99.99
2023-03-21T11:30:57.072Z,99.99
2023-03-21T11:31:57.038Z,99.99
2023-03-21T11:32:57.004Z,99.99
2023-03-21T11:33:57.184Z,99.99
2023-03-21T11:34:57.006Z,99.99
2023-03-21T11:35:57.123Z,99.99
2023-03-21T11:36:56.958Z,99.99
2023-03-21T11:37:57.086Z,99.99
2023-03-21T11:38:56.936Z,99.72
2023-03-21T11:39:57.058Z,99.99
2023-03-21T11:40:56.926Z,99.99
2023-03-21T11:41:56.929Z,99.99
2023-03-21T11:42:56.946Z,99.31
2023-03-21T11:43:56.903Z,99.82
2023-03-21T11:44:56.883Z,99.99
2023-03-21T11:45:56.946Z,99.99
2023-03-21T11:46:56.873Z,99.11
2023-03-21T11:47:56.945Z,99.41
2023-03-21T11:48:56.835Z,98.90
2023-03-21T11:50:04.686Z,98.39
2023-03-21T11:50:56.810Z,98.19
2023-03-21T11:51:56.827Z,98.19
2023-03-21T11:52:56.807Z,99.62
2023-03-21T11:53:56.822Z,99.82
2023-03-21T11:54:56.765Z,99.62
2023-03-21T11:55:56.889Z,99.99
2023-03-21T11:56:56.758Z,99.72
2023-03-21T11:58:00.174Z,99.99
2023-03-21T11:58:58.795Z,99.99
2023-03-21T11:59:56.738Z,99.99
2023-03-21T12:00:56.700Z,99.41
2023-03-21T12:01:56.708Z,99.99
2023-03-21T12:02:56.735Z,99.52
2023-03-21T12:03:56.727Z,99.99
2023-03-21T12:04:56.697Z,99.99
2023-03-21T12:05:56.675Z,99.99
2023-03-21T12:06:56.635Z,99.99
2023-03-21T12:07:56.642Z,99.99
2023-03-21T12:08:56.623Z,99.99
2023-03-21T12:09:56.621Z,99.99
2023-03-21T12:10:56.613Z,99.99
2023-03-21T12:11:56.608Z,99.99
2023-03-21T12:12:56.567Z,99.99
2023-03-21T12:13:56.584Z,99.99
2023-03-21T12:14:56.547Z,99.99
2023-03-21T12:15:56.625Z,99.99
2023-03-21T12:16:56.537Z,99.99
2023-03-21T12:17:56.540Z,99.99
2023-03-21T12:18:56.513Z,99.99
2023-03-21T12:19:56.527Z,99.99
2023-03-21T12:20:56.477Z,99.99
2023-03-21T12:21:56.491Z,99.99
2023-03-21T12:22:56.523Z,99.99
2023-03-21T12:23:56.481Z,99.32
2023-03-21T12:24:56.441Z,99.99
2023-03-21T12:25:56.591Z,98.30
2023-03-21T12:26:58.103Z,99.68
2023-03-21T12:27:56.451Z,99.99
2023-03-21T12:28:56.416Z,99.99
2023-03-21T12:29:56.405Z,98.93
2023-03-21T12:30:56.446Z,98.93
2023-03-21T12:31:56.390Z,98.31
2023-03-21T12:32:56.352Z,97.08
2023-03-21T12:33:56.373Z,98.88
2023-03-21T12:34:56.361Z,96.43
2023-03-21T12:35:56.364Z,95.25
2023-03-21T12:36:56.301Z,97.70
2023-03-21T12:37:57.922Z,98.21
2023-03-21T12:38:56.286Z,98.11
2023-03-21T12:39:56.304Z,97.49
2023-03-21T12:40:56.274Z,98.00
2023-03-21T12:41:56.281Z,94.02
2023-03-21T12:42:56.232Z,96.58
2023-03-21T12:43:56.257Z,98.31
2023-03-21T12:44:56.247Z,97.29
2023-03-21T12:45:56.234Z,93.31
2023-03-21T12:46:56.298Z,93.86
2023-03-21T12:47:56.436Z,95.56
2023-03-21T12:48:56.169Z,92.94
2023-03-21T12:49:56.198Z,94.12
2023-03-21T12:50:56.170Z,91.47
2023-03-21T12:51:56.180Z,92.80